首页
METAR-TAF:

METAR-TAF

机场 :

青森機場

青森, 日本

纬度: 40-44N, 经度: 140-42E, 海拔: 199米

当前天气观测

该预报发布于40分钟前的01:00 UTC
风速9节,风向西转西南
温度 21°C
湿度 64%
气压 1015 hPa
能见度10公里或以上
少量云层高于3000英尺
散云

METAR: RJSA 200100Z 24009KT 9999 FEW030 SCT/// 21/14 Q1015

时间: 10:40 (01:40 UTC)

预报

该预报发布于2小时和35分钟前的23:05 UTC
预报有效从20日的 00点(UTC)到 21日的 06点(UTC)
风速8节,风向西
能见度10公里或以上
少量云层高于3000英尺
成为
从 20日的 21点(UTC)到 21日的 00点(UTC)
风速8节,风向东北

TAF: RJSA 192305Z 2000/2106 27008KT 9999 FEW030 BECMG 2021/2100 04008KT

超过4000个机场的气象观测和天气预报(METAR&TAF报告)。

可查询的气象台以黄色和红色小点在地图上表示。

将鼠标移到小点上方,可查看气象台名称。

然后点击查看天气观测和预报。

如需切换地图:点击带黑十字的绿色按钮放大地图;点击带横线的绿色按钮缩小地图;或者点击绿色箭头查看邻近地区的地图。


METAR-TAF: